Buoy 43536

sailwx.info

Track history (hours):
 
Tides and Currents Weather Stations Pressure Air Temp Water Temp Dewpoint Dewpoint Depression Visibility Wind Speed Wind Dir Waves Ship Positions

Drifting buoy 43536

Last reported at 2017-Sep-22 19:00 UTC. Time now 2017-Sep-22 20:48 UTC.
Position N 14°24' W 142°49'.

Water temperature 28.1 ° C

Date/timePositionNaut miles runAvg speedWind from/ knotsBaromVisibWave heightAir tempDewpointWater temp
2017-Sep-22 19:00N 14°24' W 142°49'1 0.6 28.1
2017-Sep-22 18:00N 14°24' W 142°49'0 0.0 28.1
2017-Sep-22 17:00N 14°24' W 142°49'1 0.6 28.1
2017-Sep-22 16:00N 14°24' W 142°48'0 0.0 28.0
2017-Sep-22 15:00N 14°24' W 142°48'4 3.8 28.0
2017-Sep-22 14:00N 14°21' W 142°46'0 0.0 28.1
2017-Sep-22 13:00N 14°21' W 142°46'0 0.0 28.0
2017-Sep-22 04:00N 14°21' W 142°46'1 0.6 28.1
2017-Sep-22 03:00N 14°21' W 142°45'1 1.3 28.2
2017-Sep-22 02:00N 14°22' W 142°44'0 0.0 28.2
2017-Sep-22 01:00N 14°22' W 142°44'1 1.3 28.2
2017-Sep-22 00:00N 14°21' W 142°43'0 0.0 28.2
2017-Sep-21 19:00N 14°21' W 142°43'1 0.6 28.0
2017-Sep-21 18:00N 14°21' W 142°42'0 0.0 28.0
2017-Sep-21 17:00N 14°21' W 142°42'1 0.6 28.0
2017-Sep-21 16:00N 14°20' W 142°42'0 0.0 28.0
2017-Sep-21 15:00N 14°20' W 142°42'0 0.0 28.0
2017-Sep-21 14:00N 14°20' W 142°42'3 0.4 28.0
2017-Sep-21 07:00N 14°19' W 142°40'1 1.3 28.1
2017-Sep-21 06:00N 14°18' W 142°39'1 0.3 28.1
2017-Sep-21 04:00N 14°18' W 142°40'1 1.2 28.1
2017-Sep-21 03:00N 14°18' W 142°38'1 0.6 28.1
2017-Sep-21 02:00N 14°18' W 142°39'1 0.6 28.1
2017-Sep-21 01:00N 14°18' W 142°38'0 0.0
2017-Sep-21 00:00N 14°18' W 142°38'0 0.0 28.1
2017-Sep-20 23:00N 14°18' W 142°38'4 0.9 28.1
2017-Sep-20 19:00N 14°17' W 142°35'0 0.0 28.1
2017-Sep-20 17:00N 14°17' W 142°35'1 0.6 28.1
2017-Sep-20 16:00N 14°17' W 142°34'1 0.6 28.1
2017-Sep-20 15:00N 14°17' W 142°34'0 0.0 28.1
2017-Sep-20 14:00N 14°17' W 142°34'0 0.0 28.1
2017-Sep-20 13:00N 14°17' W 142°34'1 1.2 28.1
2017-Sep-20 12:00N 14°17' W 142°33'0 0.0 28.1
2017-Sep-20 11:00N 14°17' W 142°33'0 0.0 28.1
2017-Sep-20 07:00N 14°17' W 142°33'1 0.6 28.1
2017-Sep-20 06:00N 14°16' W 142°33'1 0.6 28.1
2017-Sep-20 05:00N 14°16' W 142°32'1 0.6 28.1
2017-Sep-20 04:00N 14°16' W 142°32'0 0.0 28.1
2017-Sep-20 03:00N 14°16' W 142°32'1 0.3 28.1
2017-Sep-20 01:00N 14°16' W 142°31'1 0.8 28.1
2017-Sep-20 00:00N 14°16' W 142°31'1 0.2 28.2
2017-Sep-19 20:00N 14°16' W 142°30'1 0.6 28.1
2017-Sep-19 19:00N 14°16' W 142°29'0 0.0 28.1
2017-Sep-19 17:00N 14°16' W 142°29'1 0.3 28.0
2017-Sep-19 15:00N 14°16' W 142°29'1 0.6 28.0
2017-Sep-19 14:00N 14°16' W 142°29'1 0.1 28.0
2017-Sep-19 07:00N 14°15' W 142°28'1 0.8 28.1
2017-Sep-19 06:00N 14°14' W 142°28'1 0.6 28.1
2017-Sep-19 05:00N 14°15' W 142°28'1 0.8 28.1
2017-Sep-19 04:00N 14°14' W 142°27'0 0.0 28.1
2017-Sep-19 03:00N 14°14' W 142°27'1 1.2 28.1
2017-Sep-19 02:00N 14°14' W 142°26'0 0.0 28.2
2017-Sep-19 01:00N 14°14' W 142°26'1 0.6 28.2
2017-Sep-19 00:00N 14°14' W 142°25'2 2.3 28.2
2017-Sep-18 23:00N 14°14' W 142°23'0 0.0 28.2
2017-Sep-18 18:00N 14°14' W 142°23'1 1.2 28.0
2017-Sep-18 17:00N 14°14' W 142°22'0 0.0 28.0
2017-Sep-18 16:00N 14°14' W 142°22'0 0.0 28.0
2017-Sep-18 15:00N 14°14' W 142°22'1 0.6 28.0
2017-Sep-18 14:00N 14°14' W 142°21'0 0.0 28.0
2017-Sep-18 13:00N 14°14' W 142°21'0 0.0 28.1
2017-Sep-18 12:00N 14°14' W 142°21'3 0.4 28.0
2017-Sep-18 06:00N 14°16' W 142°19'0 0.0 28.1
2017-Sep-18 05:00N 14°16' W 142°19'1 0.8 28.1
2017-Sep-18 04:00N 14°16' W 142°18'0 0.0 28.1
2017-Sep-18 03:00N 14°16' W 142°18'0 0.0 28.1
2017-Sep-18 02:00N 14°16' W 142°18'1 0.3 28.2
2017-Sep-18 00:00N 14°17' W 142°18'1 0.1 28.2
2017-Sep-17 19:00N 14°16' W 142°18'0 0.0 28.1
2017-Sep-17 18:00N 14°16' W 142°18'1 0.8 28.1
2017-Sep-17 17:00N 14°16' W 142°17'0 0.0 28.0
2017-Sep-17 16:00N 14°16' W 142°17'0 0.0 28.1
2017-Sep-17 15:00N 14°16' W 142°17'1 0.6 28.0
2017-Sep-17 14:00N 14°16' W 142°17'1 0.6 28.1
2017-Sep-17 13:00N 14°16' W 142°16'1 0.2 28.1
2017-Sep-17 06:00N 14°16' W 142°15'0 0.0 28.1
2017-Sep-17 05:00N 14°16' W 142°15'0 0.0 28.1
2017-Sep-17 04:00N 14°16' W 142°15'1 1.3 28.1
2017-Sep-17 03:00N 14°15' W 142°14'0 0.0 28.1
2017-Sep-17 02:00N 14°15' W 142°14'1 0.6 28.2
2017-Sep-17 00:00N 14°15' W 142°13'0 0.0 28.2
2017-Sep-16 23:00N 14°15' W 142°13'0 0.0 28.1
2017-Sep-16 19:00N 14°15' W 142°13'1 1.3 28.1
2017-Sep-16 18:00N 14°14' W 142°12'1 0.3 28.1
2017-Sep-16 16:00N 14°14' W 142°12'1 1.2 28.1
2017-Sep-16 15:00N 14°13' W 142°12'1 1.3 28.1
2017-Sep-16 14:00N 14°14' W 142°11'0 0.0 28.1
2017-Sep-16 13:00N 14°14' W 142°11'0 0.0 28.1
2017-Sep-16 12:00N 14°14' W 142°11'2 0.5 28.1
2017-Sep-16 07:00N 14°14' W 142°08'0 0.0 28.1
2017-Sep-16 06:00N 14°14' W 142°08'1 0.6 28.1
2017-Sep-16 05:00N 14°14' W 142°08'0 0.0 28.2
2017-Sep-16 04:00N 14°14' W 142°08'1 0.8 28.2
2017-Sep-16 03:00N 14°14' W 142°07'0 0.0 28.2
2017-Sep-16 00:00N 14°14' W 142°07'1 0.1 28.3
2017-Sep-15 19:00N 14°14' W 142°07'0 0.0 28.1
2017-Sep-15 18:00N 14°14' W 142°07'0 0.0 28.1
2017-Sep-15 17:00N 14°14' W 142°07'0 0.0 28.1
2017-Sep-15 16:00N 14°14' W 142°07'0 0.0 28.1
2017-Sep-15 15:00N 14°14' W 142°07'0 0.0 28.1
2017-Sep-15 14:00N 14°14' W 142°07'0 0.0 28.1
2017-Sep-15 13:00N 14°14' W 142°07'0 0.0 28.1
2017-Sep-15 12:00N 14°14' W 142°07'2 0.4 28.1
2017-Sep-15 07:00N 14°13' W 142°05'0 0.0 28.2
2017-Sep-15 06:00N 14°13' W 142°05'2 1.7 28.2
2017-Sep-15 05:00N 14°14' W 142°04'1 0.8 28.2
2017-Sep-15 04:00N 14°13' W 142°05'1 0.8 28.2
2017-Sep-15 03:00N 14°14' W 142°04'1 0.6 28.3
2017-Sep-15 02:00N 14°14' W 142°04'0 0.0 28.3
2017-Sep-15 01:00N 14°14' W 142°04'0 0.0 28.3
2017-Sep-15 00:00N 14°14' W 142°04'2 0.3 28.3
2017-Sep-14 19:00N 14°13' W 142°02'0 0.0 28.2
2017-Sep-14 18:00N 14°13' W 142°02'1 0.4 28.1
2017-Sep-14 16:00N 14°12' W 142°03'1 0.6 28.1
2017-Sep-14 15:00N 14°12' W 142°02'0 0.0 28.1
2017-Sep-14 14:00N 14°12' W 142°02'0 0.0 28.1
2017-Sep-14 13:00N 14°12' W 142°02'1 0.2 28.1
2017-Sep-14 07:00N 14°12' W 142°01'0 0.0 28.2
2017-Sep-14 06:00N 14°12' W 142°01'1 0.8 28.2
2017-Sep-14 05:00N 14°13' W 142°01'0 0.0 28.2
2017-Sep-14 04:00N 14°13' W 142°01'1 0.6 28.2
2017-Sep-14 03:00N 14°13' W 142°01'0 0.0 28.2
2017-Sep-14 02:00N 14°13' W 142°01'0 0.0 28.2
2017-Sep-14 01:00N 14°13' W 142°01'1 0.6 28.3
2017-Sep-14 00:00N 14°13' W 142°01'0 0.0 28.3
2017-Sep-13 19:00N 14°13' W 142°01'1 0.6 28.2
2017-Sep-13 18:00N 14°13' W 142°01'0 0.0 28.2
2017-Sep-13 17:00N 14°13' W 142°01'0 0.0 28.1
2017-Sep-13 16:00N 14°13' W 142°01'0 0.0 28.2
2017-Sep-13 15:00N 14°13' W 142°01'1 0.6 28.2
2017-Sep-13 14:00N 14°13' W 142°00'1 0.2 28.2
2017-Sep-13 07:00N 14°13' W 141°59'0 0.0 28.3
2017-Sep-13 06:00N 14°13' W 141°59'1 0.6 28.2
2017-Sep-13 05:00N 14°13' W 141°59'1 0.8 28.2
2017-Sep-13 04:00N 14°13' W 141°59'0 0.0 28.3
2017-Sep-13 03:00N 14°13' W 141°59'1 0.3 28.3
2017-Sep-13 01:00N 14°13' W 141°58'1 0.6 28.3
2017-Sep-13 00:00N 14°13' W 141°58'0 0.0 28.3
2017-Sep-12 23:00N 14°13' W 141°58'0 0.0 28.2
2017-Sep-12 19:00N 14°13' W 141°58'   28.2
Track history (hours):
 
Tides and Currents Weather Stations Pressure Air Temp Water Temp Dewpoint Dewpoint Depression Visibility Wind Speed Wind Dir Waves Ship Positions

Drifting buoy 43536

Last reported at 2017-Sep-22 19:00 UTC. Time now 2017-Sep-22 20:48 UTC.
Position N 14°24' W 142°49'.

Water temperature 28.1 ° C

Date/timePositionNaut miles runAvg speedWind from/ knotsBaromVisibWave heightAir tempDewpointWater temp
2017-Sep-22 19:00N 14°24' W 142°49'1 0.6 28.1
2017-Sep-22 18:00N 14°24' W 142°49'0 0.0 28.1
2017-Sep-22 17:00N 14°24' W 142°49'1 0.6 28.1
2017-Sep-22 16:00N 14°24' W 142°48'0 0.0 28.0
2017-Sep-22 15:00N 14°24' W 142°48'4 3.8 28.0
2017-Sep-22 14:00N 14°21' W 142°46'0 0.0 28.1
2017-Sep-22 13:00N 14°21' W 142°46'0 0.0 28.0
2017-Sep-22 04:00N 14°21' W 142°46'1 0.6 28.1
2017-Sep-22 03:00N 14°21' W 142°45'1 1.3 28.2
2017-Sep-22 02:00N 14°22' W 142°44'0 0.0 28.2
2017-Sep-22 01:00N 14°22' W 142°44'1 1.3 28.2
2017-Sep-22 00:00N 14°21' W 142°43'0 0.0 28.2
2017-Sep-21 19:00N 14°21' W 142°43'1 0.6 28.0
2017-Sep-21 18:00N 14°21' W 142°42'0 0.0 28.0
2017-Sep-21 17:00N 14°21' W 142°42'1 0.6 28.0
2017-Sep-21 16:00N 14°20' W 142°42'0 0.0 28.0
2017-Sep-21 15:00N 14°20' W 142°42'0 0.0 28.0
2017-Sep-21 14:00N 14°20' W 142°42'3 0.4 28.0
2017-Sep-21 07:00N 14°19' W 142°40'1 1.3 28.1
2017-Sep-21 06:00N 14°18' W 142°39'1 0.3 28.1
2017-Sep-21 04:00N 14°18' W 142°40'1 1.2 28.1
2017-Sep-21 03:00N 14°18' W 142°38'1 0.6 28.1
2017-Sep-21 02:00N 14°18' W 142°39'1 0.6 28.1
2017-Sep-21 01:00N 14°18' W 142°38'0 0.0
2017-Sep-21 00:00N 14°18' W 142°38'0 0.0 28.1
2017-Sep-20 23:00N 14°18' W 142°38'4 0.9 28.1
2017-Sep-20 19:00N 14°17' W 142°35'0 0.0 28.1
2017-Sep-20 17:00N 14°17' W 142°35'1 0.6 28.1
2017-Sep-20 16:00N 14°17' W 142°34'1 0.6 28.1
2017-Sep-20 15:00N 14°17' W 142°34'0 0.0 28.1
2017-Sep-20 14:00N 14°17' W 142°34'0 0.0 28.1
2017-Sep-20 13:00N 14°17' W 142°34'1 1.2 28.1
2017-Sep-20 12:00N 14°17' W 142°33'0 0.0 28.1
2017-Sep-20 11:00N 14°17' W 142°33'0 0.0 28.1
2017-Sep-20 07:00N 14°17' W 142°33'1 0.6 28.1
2017-Sep-20 06:00N 14°16' W 142°33'1 0.6 28.1
2017-Sep-20 05:00N 14°16' W 142°32'1 0.6 28.1
2017-Sep-20 04:00N 14°16' W 142°32'0 0.0 28.1
2017-Sep-20 03:00N 14°16' W 142°32'1 0.3 28.1
2017-Sep-20 01:00N 14°16' W 142°31'1 0.8 28.1
2017-Sep-20 00:00N 14°16' W 142°31'1 0.2 28.2
2017-Sep-19 20:00N 14°16' W 142°30'1 0.6 28.1
2017-Sep-19 19:00N 14°16' W 142°29'0 0.0 28.1
2017-Sep-19 17:00N 14°16' W 142°29'1 0.3 28.0
2017-Sep-19 15:00N 14°16' W 142°29'1 0.6 28.0
2017-Sep-19 14:00N 14°16' W 142°29'1 0.1 28.0
2017-Sep-19 07:00N 14°15' W 142°28'1 0.8 28.1
2017-Sep-19 06:00N 14°14' W 142°28'1 0.6 28.1
2017-Sep-19 05:00N 14°15' W 142°28'1 0.8 28.1
2017-Sep-19 04:00N 14°14' W 142°27'0 0.0 28.1
2017-Sep-19 03:00N 14°14' W 142°27'1 1.2 28.1
2017-Sep-19 02:00N 14°14' W 142°26'0 0.0 28.2
2017-Sep-19 01:00N 14°14' W 142°26'1 0.6 28.2
2017-Sep-19 00:00N 14°14' W 142°25'2 2.3 28.2
2017-Sep-18 23:00N 14°14' W 142°23'0 0.0 28.2
2017-Sep-18 18:00N 14°14' W 142°23'1 1.2 28.0
2017-Sep-18 17:00N 14°14' W 142°22'0 0.0 28.0
2017-Sep-18 16:00N 14°14' W 142°22'0 0.0 28.0
2017-Sep-18 15:00N 14°14' W 142°22'1 0.6 28.0
2017-Sep-18 14:00N 14°14' W 142°21'0 0.0 28.0
2017-Sep-18 13:00N 14°14' W 142°21'0 0.0 28.1
2017-Sep-18 12:00N 14°14' W 142°21'3 0.4 28.0
2017-Sep-18 06:00N 14°16' W 142°19'0 0.0 28.1
2017-Sep-18 05:00N 14°16' W 142°19'1 0.8 28.1
2017-Sep-18 04:00N 14°16' W 142°18'0 0.0 28.1
2017-Sep-18 03:00N 14°16' W 142°18'0 0.0 28.1
2017-Sep-18 02:00N 14°16' W 142°18'1 0.3 28.2
2017-Sep-18 00:00N 14°17' W 142°18'1 0.1 28.2
2017-Sep-17 19:00N 14°16' W 142°18'0 0.0 28.1
2017-Sep-17 18:00N 14°16' W 142°18'1 0.8 28.1
2017-Sep-17 17:00N 14°16' W 142°17'0 0.0 28.0
2017-Sep-17 16:00N 14°16' W 142°17'0 0.0 28.1
2017-Sep-17 15:00N 14°16' W 142°17'1 0.6 28.0
2017-Sep-17 14:00N 14°16' W 142°17'1 0.6 28.1
2017-Sep-17 13:00N 14°16' W 142°16'1 0.2 28.1
2017-Sep-17 06:00N 14°16' W 142°15'0 0.0 28.1
2017-Sep-17 05:00N 14°16' W 142°15'0 0.0 28.1
2017-Sep-17 04:00N 14°16' W 142°15'1 1.3 28.1
2017-Sep-17 03:00N 14°15' W 142°14'0 0.0 28.1
2017-Sep-17 02:00N 14°15' W 142°14'1 0.6 28.2
2017-Sep-17 00:00N 14°15' W 142°13'0 0.0 28.2
2017-Sep-16 23:00N 14°15' W 142°13'0 0.0 28.1
2017-Sep-16 19:00N 14°15' W 142°13'1 1.3 28.1
2017-Sep-16 18:00N 14°14' W 142°12'1 0.3 28.1
2017-Sep-16 16:00N 14°14' W 142°12'1 1.2 28.1
2017-Sep-16 15:00N 14°13' W 142°12'1 1.3 28.1
2017-Sep-16 14:00N 14°14' W 142°11'0 0.0 28.1
2017-Sep-16 13:00N 14°14' W 142°11'0 0.0 28.1
2017-Sep-16 12:00N 14°14' W 142°11'2 0.5 28.1
2017-Sep-16 07:00N 14°14' W 142°08'0 0.0 28.1
2017-Sep-16 06:00N 14°14' W 142°08'1 0.6 28.1
2017-Sep-16 05:00N 14°14' W 142°08'0 0.0 28.2
2017-Sep-16 04:00N 14°14' W 142°08'1 0.8 28.2
2017-Sep-16 03:00N 14°14' W 142°07'0 0.0 28.2
2017-Sep-16 00:00N 14°14' W 142°07'1 0.1 28.3
2017-Sep-15 19:00N 14°14' W 142°07'0 0.0 28.1
2017-Sep-15 18:00N 14°14' W 142°07'0 0.0 28.1
2017-Sep-15 17:00N 14°14' W 142°07'0 0.0 28.1
2017-Sep-15 16:00N 14°14' W 142°07'0 0.0 28.1
2017-Sep-15 15:00N 14°14' W 142°07'0 0.0 28.1
2017-Sep-15 14:00N 14°14' W 142°07'0 0.0 28.1
2017-Sep-15 13:00N 14°14' W 142°07'0 0.0 28.1
2017-Sep-15 12:00N 14°14' W 142°07'2 0.4 28.1
2017-Sep-15 07:00N 14°13' W 142°05'0 0.0 28.2
2017-Sep-15 06:00N 14°13' W 142°05'2 1.7 28.2
2017-Sep-15 05:00N 14°14' W 142°04'1 0.8 28.2
2017-Sep-15 04:00N 14°13' W 142°05'1 0.8 28.2
2017-Sep-15 03:00N 14°14' W 142°04'1 0.6 28.3
2017-Sep-15 02:00N 14°14' W 142°04'0 0.0 28.3
2017-Sep-15 01:00N 14°14' W 142°04'0 0.0 28.3
2017-Sep-15 00:00N 14°14' W 142°04'2 0.3 28.3
2017-Sep-14 19:00N 14°13' W 142°02'0 0.0 28.2
2017-Sep-14 18:00N 14°13' W 142°02'1 0.4 28.1
2017-Sep-14 16:00N 14°12' W 142°03'1 0.6 28.1
2017-Sep-14 15:00N 14°12' W 142°02'0 0.0 28.1
2017-Sep-14 14:00N 14°12' W 142°02'0 0.0 28.1
2017-Sep-14 13:00N 14°12' W 142°02'1 0.2 28.1
2017-Sep-14 07:00N 14°12' W 142°01'0 0.0 28.2
2017-Sep-14 06:00N 14°12' W 142°01'1 0.8 28.2
2017-Sep-14 05:00N 14°13' W 142°01'0 0.0 28.2
2017-Sep-14 04:00N 14°13' W 142°01'1 0.6 28.2
2017-Sep-14 03:00N 14°13' W 142°01'0 0.0 28.2
2017-Sep-14 02:00N 14°13' W 142°01'0 0.0 28.2
2017-Sep-14 01:00N 14°13' W 142°01'1 0.6 28.3
2017-Sep-14 00:00N 14°13' W 142°01'0 0.0 28.3
2017-Sep-13 19:00N 14°13' W 142°01'1 0.6 28.2
2017-Sep-13 18:00N 14°13' W 142°01'0 0.0 28.2
2017-Sep-13 17:00N 14°13' W 142°01'0 0.0 28.1
2017-Sep-13 16:00N 14°13' W 142°01'0 0.0 28.2
2017-Sep-13 15:00N 14°13' W 142°01'1 0.6 28.2
2017-Sep-13 14:00N 14°13' W 142°00'1 0.2 28.2
2017-Sep-13 07:00N 14°13' W 141°59'0 0.0 28.3
2017-Sep-13 06:00N 14°13' W 141°59'1 0.6 28.2
2017-Sep-13 05:00N 14°13' W 141°59'1 0.8 28.2
2017-Sep-13 04:00N 14°13' W 141°59'0 0.0 28.3
2017-Sep-13 03:00N 14°13' W 141°59'1 0.3 28.3
2017-Sep-13 01:00N 14°13' W 141°58'1 0.6 28.3
2017-Sep-13 00:00N 14°13' W 141°58'0 0.0 28.3
2017-Sep-12 23:00N 14°13' W 141°58'0 0.0 28.2
2017-Sep-12 19:00N 14°13' W 141°58'   28.2

Dump ship's entire track history